Terminal Aerodrome Forecast
Issued by NWS Charleston, WV

Current Version | Previous Version | Graphics & Text | Print | Product List | Glossary On
Versions: 1 2 3 4 5 6 7 8 9 10 11 12 13 14 15 16 17 18 19 20 21 22 23
000
FTUS41 KRLX 280541
TAFPKB
TAF
KPKB 280541Z 2806/2906 VRB03KT P6SM OVC090
     FM280800 VRB03KT 4SM SHRA OVC040
     FM281100 10004KT 4SM BR VCSH OVC025
     FM281200 19005KT 4SM BR VCSH BKN015
     FM281400 22006KT P6SM BKN015
     FM281500 24007KT P6SM VCSH BKN025
     FM282200 00000KT P6SM SCT035=

USA.gov is the U.S. government's official web portal to all federal, state and local government web resources and services.